createdAt,value
2023-03-26T03:34:23.315Z,8.30
2023-03-26T03:45:00.203Z,8.30
2023-03-26T03:56:09.922Z,8.40
2023-03-26T04:07:08.063Z,8.50
2023-03-26T04:18:10.410Z,8.50
2023-03-26T04:28:56.243Z,8.60
2023-03-26T04:39:36.234Z,8.70
2023-03-26T04:50:30.598Z,8.60
2023-03-26T05:01:10.441Z,8.60
2023-03-26T05:11:48.492Z,8.60
2023-03-26T05:22:24.504Z,8.60
2023-03-26T05:33:19.177Z,8.70
2023-03-26T05:44:01.153Z,8.70
2023-03-26T05:54:38.534Z,8.70
2023-03-26T06:05:17.275Z,8.80
2023-03-26T06:16:09.838Z,8.80
2023-03-26T06:27:08.860Z,8.60
2023-03-26T06:38:19.788Z,8.30
2023-03-26T06:48:56.027Z,8.10
2023-03-26T06:59:37.429Z,8.20
2023-03-26T07:10:31.977Z,8.20
2023-03-26T07:21:34.004Z,8.30
2023-03-26T07:32:31.100Z,8.40
2023-03-26T07:43:52.358Z,8.30
2023-03-26T07:54:47.171Z,8.40
2023-03-26T08:05:52.163Z,8.60
2023-03-26T08:17:12.965Z,9.00
2023-03-26T08:28:19.535Z,8.90
2023-03-26T08:38:57.434Z,8.60
2023-03-26T08:49:58.918Z,8.40
2023-03-26T09:00:44.376Z,8.20
2023-03-26T09:11:54.097Z,8.00
2023-03-26T09:22:53.697Z,8.60
2023-03-26T09:33:39.008Z,8.90
2023-03-26T09:44:27.252Z,8.70
2023-03-26T09:55:07.993Z,9.00
2023-03-26T10:06:16.559Z,8.80
2023-03-26T10:17:10.524Z,9.00
2023-03-26T10:28:00.849Z,9.80
2023-03-26T10:38:55.917Z,13.10
2023-03-26T10:49:35.731Z,18.10
2023-03-26T11:00:17.369Z,14.10
2023-03-26T11:11:01.883Z,12.50
2023-03-26T11:21:57.468Z,12.40
2023-03-26T11:32:49.874Z,11.30
2023-03-26T11:43:32.701Z,11.50
2023-03-26T11:54:11.828Z,12.00
2023-03-26T12:04:50.934Z,11.40
2023-03-26T12:15:28.476Z,11.90
2023-03-26T12:26:15.458Z,12.10
2023-03-26T12:36:54.712Z,12.60
2023-03-26T12:47:59.262Z,12.60
2023-03-26T12:58:54.887Z,12.80
2023-03-26T13:09:52.875Z,12.30
2023-03-26T13:20:57.832Z,12.00
2023-03-26T13:31:40.590Z,12.90
2023-03-26T13:42:33.565Z,12.90
2023-03-26T13:53:26.012Z,12.90
2023-03-26T14:04:35.546Z,13.60
2023-03-26T14:15:26.532Z,12.70
2023-03-26T14:26:15.356Z,12.90
2023-03-26T14:37:39.604Z,13.20
2023-03-26T14:48:45.605Z,13.30
2023-03-26T15:00:07.099Z,13.30
2023-03-26T15:11:12.794Z,13.10
2023-03-26T15:22:18.872Z,12.80
2023-03-26T15:33:14.482Z,12.50
2023-03-26T15:54:51.637Z,12.00
2023-03-26T16:05:37.174Z,11.60
2023-03-26T16:16:16.024Z,11.30
2023-03-26T16:26:51.639Z,11.00
2023-03-26T16:37:35.566Z,10.50
2023-03-26T16:48:28.870Z,10.00
2023-03-26T16:59:38.238Z,9.30
2023-03-26T17:10:33.186Z,9.20
2023-03-26T17:21:46.293Z,9.20
2023-03-26T17:32:23.035Z,9.40
2023-03-26T17:43:02.668Z,9.30
2023-03-26T17:53:41.454Z,9.20
2023-03-26T18:04:21.461Z,9.10
2023-03-26T18:15:15.588Z,9.10
2023-03-26T18:26:31.850Z,8.70
2023-03-26T18:37:22.410Z,8.50
2023-03-26T18:48:04.723Z,8.60
2023-03-26T18:58:40.533Z,8.60
2023-03-26T19:09:31.195Z,8.60
2023-03-26T19:20:16.747Z,8.50
2023-03-26T19:30:56.197Z,8.40
2023-03-26T19:41:38.813Z,8.30
2023-03-26T19:52:21.648Z,8.30
2023-03-26T20:02:57.683Z,8.10
2023-03-26T20:13:33.540Z,8.00
2023-03-26T20:24:13.059Z,7.80
2023-03-26T20:34:49.623Z,7.80
2023-03-26T20:45:26.300Z,7.80
2023-03-26T20:56:02.083Z,7.70
2023-03-26T21:06:37.712Z,7.50
2023-03-26T21:17:17.168Z,7.60
2023-03-26T21:28:01.682Z,7.60
